createdAt,value
2022-12-31T00:03:00.156Z,24.17
2022-12-31T00:06:15.414Z,24.40
2022-12-31T00:09:20.648Z,21.92
2022-12-31T00:12:26.416Z,21.33
2022-12-31T00:15:31.846Z,21.30
2022-12-31T00:18:37.240Z,20.88
2022-12-31T00:21:46.925Z,21.13
2022-12-31T00:24:51.997Z,21.40
2022-12-31T00:27:57.381Z,24.08
2022-12-31T00:31:07.742Z,22.88
2022-12-31T00:34:13.158Z,25.60
2022-12-31T00:37:21.337Z,23.23
2022-12-31T00:40:26.618Z,23.42
2022-12-31T00:43:32.090Z,29.08
2022-12-31T00:49:41.924Z,28.23
2022-12-31T00:52:50.068Z,26.85
2022-12-31T00:55:55.777Z,28.13
2022-12-31T00:59:01.859Z,26.67
2022-12-31T01:02:07.614Z,23.90
2022-12-31T01:05:13.188Z,25.63
2022-12-31T01:08:21.577Z,24.95
2022-12-31T01:11:29.798Z,22.33
2022-12-31T01:14:35.251Z,25.38
2022-12-31T01:17:40.765Z,25.77
2022-12-31T01:20:46.936Z,28.98
2022-12-31T01:27:03.601Z,26.20
2022-12-31T01:30:09.183Z,26.23
2022-12-31T01:33:14.583Z,28.75
2022-12-31T01:36:25.512Z,32.08
2022-12-31T01:39:34.157Z,26.23
2022-12-31T01:42:39.823Z,25.58
2022-12-31T01:45:45.264Z,23.15
2022-12-31T01:48:53.006Z,20.55
2022-12-31T01:51:59.562Z,22.13
2022-12-31T01:55:10.058Z,20.27
2022-12-31T01:58:18.772Z,23.33
2022-12-31T02:04:30.071Z,21.02
2022-12-31T02:07:35.618Z,25.88
2022-12-31T02:10:43.920Z,25.55
2022-12-31T02:13:52.567Z,26.73
2022-12-31T02:17:05.650Z,27.15
2022-12-31T02:20:28.248Z,24.25
2022-12-31T02:23:57.361Z,25.02
2022-12-31T02:27:08.056Z,25.13
2022-12-31T02:30:18.221Z,26.48
2022-12-31T02:33:26.125Z,20.50
2022-12-31T02:36:35.418Z,22.48
2022-12-31T02:39:41.259Z,24.20
2022-12-31T02:42:53.281Z,21.63
2022-12-31T02:46:08.674Z,21.48
2022-12-31T02:49:16.848Z,23.75
2022-12-31T02:52:25.883Z,19.83
2022-12-31T02:55:35.452Z,20.05
2022-12-31T02:58:56.738Z,20.08
2022-12-31T03:02:19.983Z,19.70
2022-12-31T03:05:27.035Z,20.35
2022-12-31T03:08:32.576Z,20.90
2022-12-31T03:11:50.029Z,17.88
2022-12-31T03:14:55.974Z,19.27
2022-12-31T03:18:05.094Z,21.42
2022-12-31T03:21:27.098Z,17.30
2022-12-31T03:24:45.023Z,19.55
2022-12-31T03:27:50.375Z,17.63
2022-12-31T03:30:56.321Z,18.45
2022-12-31T03:34:04.206Z,19.13
2022-12-31T03:37:09.687Z,21.85
2022-12-31T03:40:15.781Z,18.33
2022-12-31T03:43:21.398Z,20.25
2022-12-31T03:46:26.970Z,19.92
2022-12-31T03:49:34.796Z,19.52
2022-12-31T03:52:40.565Z,22.60
2022-12-31T03:55:45.841Z,21.13
2022-12-31T03:58:51.348Z,28.35
2022-12-31T04:01:56.520Z,22.58
2022-12-31T04:05:04.837Z,23.00
2022-12-31T04:11:20.634Z,22.48
2022-12-31T04:14:26.705Z,27.88
2022-12-31T04:17:32.145Z,23.45
2022-12-31T04:20:40.153Z,22.48
2022-12-31T04:23:45.598Z,21.42
2022-12-31T04:26:50.822Z,20.23
2022-12-31T04:29:56.182Z,19.15
2022-12-31T04:33:02.606Z,16.95
2022-12-31T04:36:11.765Z,17.35
2022-12-31T04:39:17.241Z,15.93
2022-12-31T04:42:22.752Z,15.93
2022-12-31T04:45:28.175Z,17.55
2022-12-31T04:48:33.172Z,18.42
2022-12-31T04:51:41.732Z,17.08
2022-12-31T04:54:47.331Z,16.35
2022-12-31T04:57:52.927Z,17.20
2022-12-31T05:00:58.149Z,16.00
2022-12-31T05:04:03.654Z,16.15
2022-12-31T05:07:11.686Z,14.15
2022-12-31T05:10:17.149Z,16.25
2022-12-31T05:13:23.324Z,14.80
2022-12-31T05:16:30.276Z,15.77
2022-12-31T05:19:35.410Z,16.00
2022-12-31T05:22:43.635Z,13.70
2022-12-31T05:25:50.178Z,16.70
2022-12-31T05:28:55.654Z,14.60
2022-12-31T05:32:01.215Z,15.68
2022-12-31T05:35:07.743Z,13.60
2022-12-31T05:38:15.674Z,12.50
2022-12-31T05:41:21.336Z,22.13
2022-12-31T05:44:26.575Z,12.82
2022-12-31T05:47:32.013Z,13.75
2022-12-31T05:50:37.396Z,13.15
2022-12-31T05:53:45.638Z,11.93
2022-12-31T05:56:50.993Z,12.60
2022-12-31T05:59:56.548Z,16.48
2022-12-31T06:03:01.844Z,16.13
2022-12-31T06:06:08.288Z,11.68
2022-12-31T06:09:16.462Z,14.93
2022-12-31T06:12:22.299Z,14.52
2022-12-31T06:15:27.309Z,14.82
2022-12-31T06:18:32.923Z,12.85
2022-12-31T06:21:38.422Z,13.90
2022-12-31T06:24:46.678Z,13.52
2022-12-31T06:27:51.934Z,14.27
2022-12-31T06:31:02.356Z,13.32
2022-12-31T06:34:08.061Z,11.93
2022-12-31T06:37:13.679Z,12.45
2022-12-31T06:40:21.370Z,14.90
2022-12-31T06:43:27.010Z,11.88
2022-12-31T06:46:32.301Z,12.23
2022-12-31T06:49:37.505Z,11.38
2022-12-31T06:52:42.787Z,13.23
2022-12-31T06:55:50.830Z,13.20
2022-12-31T06:58:56.650Z,13.00
2022-12-31T07:02:22.724Z,12.02
2022-12-31T07:05:30.879Z,11.25
2022-12-31T07:08:48.011Z,16.50
2022-12-31T07:11:59.900Z,11.52
2022-12-31T07:15:08.163Z,14.23
2022-12-31T07:18:18.639Z,11.13
2022-12-31T07:21:28.050Z,11.13
2022-12-31T07:24:33.479Z,11.77
2022-12-31T07:27:59.031Z,11.50
2022-12-31T07:31:07.847Z,14.55
2022-12-31T07:34:16.601Z,13.98
2022-12-31T07:40:30.901Z,14.77
2022-12-31T07:43:41.742Z,11.88
2022-12-31T07:46:53.551Z,13.80
2022-12-31T07:49:59.523Z,14.07
2022-12-31T07:53:05.022Z,11.95
2022-12-31T07:56:12.018Z,13.80
2022-12-31T07:59:25.876Z,12.75
2022-12-31T08:02:42.371Z,18.60
2022-12-31T08:05:51.372Z,8.77
2022-12-31T08:09:01.873Z,14.05
2022-12-31T08:12:07.416Z,11.32
2022-12-31T08:15:20.593Z,12.27
2022-12-31T08:18:27.339Z,11.48
2022-12-31T08:21:38.800Z,13.95
2022-12-31T08:24:49.136Z,14.45
2022-12-31T08:28:01.909Z,13.05
2022-12-31T08:31:13.673Z,18.02
2022-12-31T08:34:24.935Z,12.50
2022-12-31T08:37:36.949Z,10.25
2022-12-31T08:40:50.843Z,15.70
2022-12-31T08:44:01.728Z,12.27
2022-12-31T08:47:15.777Z,10.45
2022-12-31T08:50:22.840Z,12.60
2022-12-31T08:53:28.923Z,12.55
2022-12-31T08:56:36.052Z,12.68
2022-12-31T08:59:47.000Z,12.38
2022-12-31T09:03:02.996Z,9.18
2022-12-31T09:06:11.939Z,11.68
2022-12-31T09:09:20.369Z,12.90
2022-12-31T09:12:29.526Z,10.32
2022-12-31T09:15:40.778Z,10.90
2022-12-31T09:18:48.685Z,9.35
2022-12-31T09:21:54.322Z,9.82
2022-12-31T09:24:59.847Z,13.55
2022-12-31T09:28:14.017Z,12.82
2022-12-31T09:31:22.117Z,8.93
2022-12-31T09:34:34.279Z,9.27
2022-12-31T09:37:42.313Z,9.90
2022-12-31T09:40:54.527Z,12.43
2022-12-31T09:44:14.703Z,9.32
2022-12-31T09:47:37.967Z,11.38
2022-12-31T09:50:53.054Z,9.15
2022-12-31T09:54:13.336Z,12.25
2022-12-31T09:57:25.952Z,9.73
2022-12-31T10:00:34.881Z,11.43
2022-12-31T10:03:47.440Z,11.90
2022-12-31T10:06:59.990Z,10.15
2022-12-31T10:10:15.517Z,9.77
2022-12-31T10:13:31.452Z,8.25
2022-12-31T10:16:54.172Z,10.07
2022-12-31T10:20:22.653Z,7.20
2022-12-31T10:23:37.989Z,6.93
2022-12-31T10:26:55.793Z,7.47
2022-12-31T10:30:02.206Z,8.15
2022-12-31T10:33:11.767Z,8.88
2022-12-31T10:39:26.915Z,10.10
2022-12-31T10:42:45.061Z,11.40
2022-12-31T10:46:22.599Z,10.70
2022-12-31T10:49:47.548Z,7.95
2022-12-31T10:53:18.354Z,8.15
2022-12-31T10:56:44.666Z,8.63
2022-12-31T11:00:06.523Z,11.55
2022-12-31T11:03:33.171Z,9.25
2022-12-31T11:06:56.084Z,8.90
2022-12-31T11:10:15.322Z,10.20
2022-12-31T11:13:35.360Z,7.05
2022-12-31T11:16:46.664Z,9.50
2022-12-31T11:19:57.634Z,4.43
2022-12-31T11:23:07.980Z,7.47
2022-12-31T11:26:20.735Z,6.75
2022-12-31T11:29:32.616Z,7.68
2022-12-31T11:32:50.749Z,8.13
2022-12-31T11:36:03.686Z,8.32
2022-12-31T11:39:31.335Z,8.80
2022-12-31T11:42:45.189Z,8.63
2022-12-31T11:46:03.790Z,9.15
2022-12-31T11:49:17.983Z,10.23
2022-12-31T11:52:31.290Z,8.02
2022-12-31T11:55:41.064Z,8.55
2022-12-31T11:58:50.234Z,9.27
2022-12-31T12:01:58.871Z,8.05
2022-12-31T12:05:10.647Z,7.00
2022-12-31T12:08:17.859Z,8.20
2022-12-31T12:11:25.543Z,4.75
2022-12-31T12:14:37.292Z,10.82
2022-12-31T12:17:42.893Z,5.65
2022-12-31T12:20:49.683Z,6.07
2022-12-31T12:23:58.740Z,6.43
2022-12-31T12:27:04.072Z,4.65
2022-12-31T12:30:21.490Z,5.47
2022-12-31T12:33:27.227Z,4.67
2022-12-31T12:36:32.655Z,3.10
2022-12-31T12:39:38.907Z,2.88
2022-12-31T12:42:49.606Z,5.00
2022-12-31T12:45:59.782Z,5.30
2022-12-31T12:49:06.189Z,4.20
2022-12-31T12:52:26.960Z,4.78
2022-12-31T12:55:37.070Z,4.70
2022-12-31T12:58:51.825Z,4.82
2022-12-31T13:02:06.505Z,3.58
2022-12-31T13:05:25.978Z,5.47
2022-12-31T13:08:39.683Z,4.97
2022-12-31T13:11:47.971Z,7.32
2022-12-31T13:14:57.167Z,4.47
2022-12-31T13:18:14.459Z,4.82
2022-12-31T13:21:34.510Z,5.20
2022-12-31T13:24:47.227Z,7.20
2022-12-31T13:27:54.296Z,5.68
2022-12-31T13:31:06.472Z,3.90
2022-12-31T13:34:19.503Z,3.90
2022-12-31T13:37:29.042Z,3.75
2022-12-31T13:40:36.058Z,5.38
2022-12-31T13:43:48.862Z,6.53
2022-12-31T13:47:00.274Z,5.03
2022-12-31T13:50:14.585Z,4.28
2022-12-31T13:53:26.249Z,5.80
2022-12-31T13:56:34.682Z,5.35
2022-12-31T14:02:48.401Z,8.20
2022-12-31T14:05:59.876Z,6.20
2022-12-31T14:09:05.397Z,7.43
2022-12-31T14:12:22.192Z,7.05
2022-12-31T14:15:29.897Z,7.10
2022-12-31T14:18:39.060Z,9.05
2022-12-31T14:21:50.598Z,7.18
2022-12-31T14:24:56.861Z,7.75
2022-12-31T14:28:02.847Z,6.30
2022-12-31T14:31:10.222Z,6.10
2022-12-31T14:34:18.755Z,6.75
2022-12-31T14:40:35.808Z,7.85
2022-12-31T14:43:44.970Z,7.70
2022-12-31T14:46:57.907Z,10.68
2022-12-31T14:50:07.787Z,13.73
2022-12-31T14:53:27.957Z,8.73
2022-12-31T14:56:42.180Z,5.93
2022-12-31T14:59:55.765Z,8.52
2022-12-31T15:03:02.461Z,9.65
2022-12-31T15:06:29.522Z,7.80
2022-12-31T15:09:53.819Z,10.57
2022-12-31T15:13:05.439Z,5.70
2022-12-31T15:16:17.240Z,9.15
2022-12-31T15:19:49.013Z,8.40
2022-12-31T15:22:55.355Z,7.18
2022-12-31T15:26:02.112Z,7.15
2022-12-31T15:29:12.172Z,6.32
2022-12-31T15:32:21.057Z,6.82
2022-12-31T15:35:31.134Z,7.18
2022-12-31T15:38:37.958Z,8.18
2022-12-31T15:42:10.348Z,10.00
2022-12-31T15:45:17.455Z,13.52
2022-12-31T15:48:25.901Z,10.15
2022-12-31T15:51:33.321Z,15.45
2022-12-31T15:54:39.689Z,10.32
2022-12-31T15:57:46.326Z,13.82
2022-12-31T16:01:01.107Z,14.57
2022-12-31T16:04:09.094Z,13.27
2022-12-31T16:07:15.669Z,12.23
2022-12-31T16:10:23.122Z,14.23
2022-12-31T16:13:29.647Z,12.67
2022-12-31T16:16:37.540Z,12.77
2022-12-31T16:19:46.403Z,11.63
2022-12-31T16:22:56.319Z,9.02
2022-12-31T16:26:03.352Z,10.25
2022-12-31T16:29:08.580Z,10.55
2022-12-31T16:32:18.158Z,10.60
2022-12-31T16:35:24.897Z,10.95
2022-12-31T16:38:36.071Z,7.97
2022-12-31T16:41:45.637Z,6.75
2022-12-31T16:44:51.112Z,6.57
2022-12-31T16:47:59.107Z,6.28
2022-12-31T16:51:04.596Z,3.85
2022-12-31T16:54:19.723Z,4.82
2022-12-31T16:57:26.109Z,4.40
2022-12-31T17:00:31.541Z,5.28
2022-12-31T17:03:42.169Z,4.38
2022-12-31T17:06:47.668Z,5.57
2022-12-31T17:10:04.675Z,3.03
2022-12-31T17:13:29.091Z,3.63
2022-12-31T17:16:35.612Z,3.83
2022-12-31T17:19:46.100Z,4.63
2022-12-31T17:22:52.243Z,3.25
2022-12-31T17:26:03.939Z,3.08
2022-12-31T17:29:09.253Z,6.50
2022-12-31T17:32:30.757Z,6.53
2022-12-31T17:35:42.479Z,6.05
2022-12-31T17:38:47.575Z,8.00
2022-12-31T17:41:53.928Z,7.07
2022-12-31T17:45:00.773Z,6.60
2022-12-31T17:48:06.043Z,6.10
2022-12-31T17:51:14.419Z,8.13
2022-12-31T17:57:27.762Z,5.47
2022-12-31T18:00:33.510Z,8.02
2022-12-31T18:03:39.366Z,7.15
2022-12-31T18:06:47.375Z,8.32
2022-12-31T18:09:52.770Z,7.30
2022-12-31T18:12:59.117Z,7.45
2022-12-31T18:16:04.447Z,8.07
2022-12-31T18:19:23.630Z,6.32
2022-12-31T18:22:38.992Z,7.68
2022-12-31T18:28:48.681Z,8.40
2022-12-31T18:31:54.200Z,8.13
2022-12-31T18:34:59.849Z,8.95
2022-12-31T18:38:09.560Z,9.18
2022-12-31T18:41:19.191Z,11.52
2022-12-31T18:44:24.208Z,8.60
2022-12-31T18:47:35.845Z,6.43
2022-12-31T18:50:43.471Z,6.63
2022-12-31T18:53:51.282Z,9.35
2022-12-31T18:56:57.270Z,8.30
2022-12-31T19:00:02.800Z,11.07
2022-12-31T19:03:09.693Z,9.60
2022-12-31T19:06:15.438Z,12.68
2022-12-31T19:09:44.849Z,9.75
2022-12-31T19:12:48.851Z,13.48
2022-12-31T19:15:55.887Z,9.75
2022-12-31T19:19:06.814Z,9.23
2022-12-31T19:22:17.471Z,9.30
2022-12-31T19:25:26.473Z,13.35
2022-12-31T19:28:32.093Z,10.50
2022-12-31T19:31:37.836Z,12.55
2022-12-31T19:34:43.127Z,11.27
2022-12-31T19:37:49.873Z,9.13
2022-12-31T19:40:58.164Z,11.48
2022-12-31T19:47:08.519Z,12.25
2022-12-31T19:50:14.948Z,17.17
2022-12-31T19:53:22.201Z,21.55
2022-12-31T19:56:30.121Z,16.48
2022-12-31T19:59:35.450Z,11.30
2022-12-31T20:02:40.787Z,10.15
2022-12-31T20:05:46.527Z,14.45
2022-12-31T20:08:51.982Z,12.38
2022-12-31T20:11:59.962Z,12.20
2022-12-31T20:15:05.298Z,10.90
2022-12-31T20:18:10.714Z,14.20
2022-12-31T20:21:18.084Z,12.23
2022-12-31T20:24:23.400Z,15.53
2022-12-31T20:27:31.504Z,10.20
2022-12-31T20:30:36.776Z,17.85
2022-12-31T20:33:42.586Z,16.52
2022-12-31T20:36:47.783Z,20.45
2022-12-31T20:39:52.982Z,13.38
2022-12-31T20:43:01.505Z,16.98
2022-12-31T20:49:31.141Z,16.83
2022-12-31T20:52:43.573Z,20.50
2022-12-31T20:55:48.814Z,15.30
2022-12-31T20:58:56.658Z,16.17
2022-12-31T21:05:27.816Z,12.27
2022-12-31T21:08:35.272Z,14.27
2022-12-31T21:11:52.911Z,19.35
2022-12-31T21:15:00.968Z,14.57
2022-12-31T21:18:06.791Z,22.08
2022-12-31T21:21:13.337Z,32.13
2022-12-31T21:24:23.873Z,35.85
2022-12-31T21:27:29.576Z,36.33
2022-12-31T21:30:37.479Z,29.60
2022-12-31T21:33:42.814Z,29.42
2022-12-31T21:36:47.992Z,24.33
2022-12-31T21:39:53.183Z,20.30
2022-12-31T21:42:58.628Z,20.75
2022-12-31T21:46:07.540Z,23.20
2022-12-31T21:49:13.339Z,29.08
2022-12-31T21:52:33.614Z,23.50
2022-12-31T21:55:53.576Z,25.67
2022-12-31T21:59:11.865Z,23.88
2022-12-31T22:05:37.134Z,27.43
2022-12-31T22:08:43.709Z,25.80
2022-12-31T22:11:48.934Z,24.63
2022-12-31T22:15:15.955Z,26.60
2022-12-31T22:18:20.067Z,31.55
2022-12-31T22:21:28.492Z,30.35
2022-12-31T22:24:33.616Z,28.15
2022-12-31T22:27:38.736Z,36.17
2022-12-31T22:30:44.147Z,29.17
2022-12-31T22:33:49.685Z,34.95
2022-12-31T22:36:57.673Z,32.75
2022-12-31T22:40:03.265Z,32.35
2022-12-31T22:43:08.887Z,28.83
2022-12-31T22:46:15.537Z,34.13
2022-12-31T22:49:21.293Z,31.00
2022-12-31T22:52:29.515Z,31.30
2022-12-31T22:55:34.750Z,30.88
2022-12-31T22:58:40.220Z,32.47
2022-12-31T23:01:45.473Z,33.35
2022-12-31T23:04:50.612Z,33.13
2022-12-31T23:07:59.628Z,31.55
2022-12-31T23:11:06.254Z,32.20
2022-12-31T23:14:26.272Z,35.17
2022-12-31T23:17:43.632Z,31.35
2022-12-31T23:21:01.564Z,32.17
2022-12-31T23:24:18.029Z,30.38
2022-12-31T23:30:30.845Z,32.58
2022-12-31T23:33:36.348Z,35.00
2022-12-31T23:36:41.802Z,30.65
2022-12-31T23:39:49.913Z,37.47
2022-12-31T23:42:55.188Z,32.95
2022-12-31T23:46:00.385Z,30.20
2022-12-31T23:49:05.667Z,31.83
2022-12-31T23:52:11.154Z,25.23
2022-12-31T23:55:18.861Z,30.25
2022-12-31T23:58:24.501Z,27.02
